createdAt,value
2019-04-20T00:00:48.797Z,98.90
2019-04-20T00:03:26.007Z,99.60
2019-04-20T00:06:01.476Z,99.90
2019-04-20T00:08:41.169Z,99.70
2019-04-20T00:11:25.479Z,99.60
2019-04-20T00:14:04.091Z,98.40
2019-04-20T00:16:35.794Z,97.40
2019-04-20T00:19:17.232Z,97.50
2019-04-20T00:22:00.299Z,98.50
2019-04-20T00:25:00.460Z,97.90
2019-04-20T00:27:54.588Z,98.50
2019-04-20T00:30:32.429Z,99.00
2019-04-20T00:33:14.718Z,99.30
2019-04-20T00:35:42.547Z,98.00
2019-04-20T00:38:21.056Z,97.90
2019-04-20T00:41:02.675Z,98.80
2019-04-20T00:43:40.527Z,98.60
2019-04-20T00:46:26.277Z,98.20
2019-04-20T00:49:07.060Z,97.60
2019-04-20T00:51:52.765Z,97.20
2019-04-20T00:54:13.587Z,97.20
2019-04-20T00:56:53.263Z,98.00
2019-04-20T00:59:54.200Z,98.60
2019-04-20T01:02:20.764Z,99.40
2019-04-20T01:05:05.442Z,99.60
2019-04-20T01:07:39.499Z,99.90
2019-04-20T01:10:13.179Z,99.60
2019-04-20T01:12:53.925Z,99.40
2019-04-20T01:15:38.661Z,99.30
2019-04-20T01:18:10.771Z,99.50
2019-04-20T01:20:47.371Z,99.70
2019-04-20T01:23:34.642Z,99.10
2019-04-20T01:26:09.310Z,98.80
2019-04-20T01:28:54.190Z,98.30
2019-04-20T01:31:29.596Z,98.50
2019-04-20T01:34:08.361Z,98.00
2019-04-20T01:36:59.909Z,98.00
2019-04-20T01:39:28.418Z,98.30
2019-04-20T01:41:58.805Z,98.70
2019-04-20T01:44:41.643Z,98.20
2019-04-20T01:47:15.430Z,98.30
2019-04-20T01:49:59.899Z,98.90
2019-04-20T01:52:48.279Z,99.10
2019-04-20T01:55:56.069Z,99.90
2019-04-20T01:58:36.359Z,99.90
2019-04-20T02:01:09.732Z,99.50
2019-04-20T02:03:52.486Z,98.80
2019-04-20T02:06:35.558Z,98.90
2019-04-20T02:09:15.255Z,99.00
2019-04-20T02:11:51.788Z,99.00
2019-04-20T02:14:37.073Z,99.00
2019-04-20T02:17:18.068Z,98.90
2019-04-20T02:20:07.868Z,98.70
2019-04-20T02:22:42.168Z,98.90
2019-04-20T02:25:03.821Z,99.90
2019-04-20T02:27:47.104Z,99.90
2019-04-20T02:30:59.623Z,99.90
2019-04-20T02:33:43.065Z,99.90
2019-04-20T02:36:20.621Z,99.90
2019-04-20T02:39:21.125Z,99.90
2019-04-20T02:41:51.766Z,99.90
2019-04-20T02:44:33.882Z,99.90
2019-04-20T02:47:14.729Z,99.90
2019-04-20T02:49:54.191Z,99.90
2019-04-20T02:52:29.737Z,99.90
2019-04-20T02:55:14.851Z,99.90
2019-04-20T02:57:47.298Z,99.90
2019-04-20T03:00:22.036Z,99.90
2019-04-20T03:02:46.160Z,99.90
2019-04-20T03:05:26.254Z,99.90
2019-04-20T03:08:08.736Z,99.90
2019-04-20T03:11:00.758Z,99.90
2019-04-20T03:13:31.993Z,99.90
2019-04-20T03:16:12.294Z,99.90
2019-04-20T03:18:50.867Z,99.90
2019-04-20T03:21:38.087Z,99.90
2019-04-20T03:24:18.901Z,99.90
2019-04-20T03:26:55.781Z,99.90
2019-04-20T03:29:55.173Z,99.90
2019-04-20T03:35:29.858Z,99.90
2019-04-20T03:37:55.340Z,99.90
2019-04-20T03:40:24.488Z,99.90
2019-04-20T03:42:48.668Z,99.90
2019-04-20T03:45:28.120Z,99.90
2019-04-20T03:48:17.144Z,99.90
2019-04-20T03:51:04.337Z,99.90
2019-04-20T03:53:59.118Z,99.90
2019-04-20T03:56:54.767Z,99.90
2019-04-20T03:59:53.307Z,99.90
2019-04-20T04:02:37.881Z,99.90
2019-04-20T04:05:08.806Z,99.90
2019-04-20T04:07:36.997Z,99.90
2019-04-20T04:10:21.413Z,99.90
2019-04-20T04:13:18.795Z,99.90
2019-04-20T04:16:02.627Z,99.90
2019-04-20T04:18:39.462Z,99.90
2019-04-20T04:21:22.074Z,99.90
2019-04-20T04:24:05.579Z,99.90
2019-04-20T04:26:48.883Z,99.90
2019-04-20T04:29:38.442Z,99.90
2019-04-20T04:32:23.829Z,99.90
2019-04-20T04:34:51.446Z,99.90
2019-04-20T04:37:29.329Z,99.90
2019-04-20T04:40:14.916Z,99.90
2019-04-20T04:42:46.580Z,99.90
2019-04-20T04:45:10.689Z,99.90
2019-04-20T04:47:45.339Z,99.90
2019-04-20T04:50:26.185Z,99.90
2019-04-20T04:53:09.392Z,99.90
2019-04-20T04:55:47.761Z,99.90
2019-04-20T04:58:19.638Z,99.90
2019-04-20T05:01:04.497Z,99.90
2019-04-20T05:03:54.141Z,99.90
2019-04-20T05:06:31.808Z,99.90
2019-04-20T05:09:00.244Z,99.90
2019-04-20T05:11:36.642Z,99.90
2019-04-20T05:14:21.646Z,99.90
2019-04-20T05:17:07.679Z,99.90
2019-04-20T05:19:55.292Z,99.90
2019-04-20T05:22:32.140Z,99.90
2019-04-20T05:25:18.442Z,99.90
2019-04-20T05:28:03.024Z,99.90
2019-04-20T05:30:20.843Z,99.90
2019-04-20T05:33:06.028Z,99.90
2019-04-20T05:36:01.841Z,99.90
2019-04-20T05:38:41.979Z,99.90
2019-04-20T05:41:11.427Z,99.90
2019-04-20T05:44:02.101Z,99.90
2019-04-20T05:46:42.310Z,99.90
2019-04-20T05:49:21.907Z,99.90
2019-04-20T05:51:57.724Z,99.40
2019-04-20T05:54:39.146Z,98.00
2019-04-20T05:57:23.595Z,97.60
2019-04-20T06:00:05.254Z,94.90
2019-04-20T06:02:34.742Z,94.40
2019-04-20T06:05:21.993Z,94.10
2019-04-20T06:07:54.819Z,93.80
2019-04-20T06:10:36.130Z,94.30
2019-04-20T06:13:17.752Z,93.30
2019-04-20T06:16:13.955Z,92.80
2019-04-20T06:19:10.806Z,92.80
2019-04-20T06:21:44.266Z,91.80
2019-04-20T06:24:26.516Z,91.70
2019-04-20T06:27:03.249Z,91.50
2019-04-20T06:29:43.906Z,91.50
2019-04-20T06:32:28.244Z,90.80
2019-04-20T06:35:04.650Z,91.20
2019-04-20T06:37:39.128Z,91.20
2019-04-20T06:40:39.782Z,91.00
2019-04-20T06:42:58.604Z,90.90
2019-04-20T06:45:44.447Z,91.20
2019-04-20T06:48:29.091Z,90.20
2019-04-20T06:50:50.805Z,90.20
2019-04-20T06:53:43.617Z,89.10
2019-04-20T06:56:31.141Z,88.30
2019-04-20T06:59:11.956Z,87.60
2019-04-20T07:01:54.635Z,87.40
2019-04-20T07:07:11.377Z,85.10
2019-04-20T07:12:32.955Z,83.80
2019-04-20T07:15:17.748Z,80.90
2019-04-20T07:18:06.151Z,77.30
2019-04-20T07:23:35.264Z,72.30
2019-04-20T07:26:16.981Z,62.00
2019-04-20T07:29:01.884Z,59.60
2019-04-20T07:31:29.645Z,57.30
2019-04-20T07:34:15.685Z,55.60
2019-04-20T07:37:18.674Z,49.10
2019-04-20T07:39:34.742Z,48.70
2019-04-20T07:42:19.258Z,46.20
2019-04-20T07:45:01.562Z,45.80
2019-04-20T07:47:40.591Z,46.60
2019-04-20T07:50:09.031Z,44.00
2019-04-20T07:52:43.866Z,43.10
2019-04-20T07:55:40.432Z,40.00
2019-04-20T07:58:05.256Z,41.20
2019-04-20T08:01:04.239Z,41.20
2019-04-20T08:03:42.801Z,41.20
2019-04-20T08:06:20.080Z,41.80
2019-04-20T08:09:07.353Z,42.20
2019-04-20T08:11:55.153Z,42.90
2019-04-20T08:14:44.446Z,41.80
2019-04-20T08:17:31.435Z,40.40
2019-04-20T08:20:04.350Z,39.30
2019-04-20T08:22:47.987Z,40.10
2019-04-20T08:25:16.216Z,39.70
2019-04-20T08:28:06.411Z,40.80
2019-04-20T08:31:00.604Z,38.10
2019-04-20T08:34:02.844Z,38.80
2019-04-20T08:36:33.263Z,38.20
2019-04-20T08:39:19.948Z,37.90
2019-04-20T08:41:50.367Z,39.10
2019-04-20T08:47:20.593Z,35.40
2019-04-20T08:50:15.977Z,32.60
2019-04-20T08:53:08.986Z,33.50
2019-04-20T08:55:29.784Z,36.40
2019-04-20T08:57:51.597Z,35.70
2019-04-20T09:00:37.082Z,35.80
2019-04-20T09:03:17.095Z,37.40
2019-04-20T09:06:00.478Z,38.10
2019-04-20T09:08:36.719Z,37.30
2019-04-20T09:11:23.255Z,38.80
2019-04-20T09:13:51.930Z,38.50
2019-04-20T09:16:32.879Z,38.60
2019-04-20T09:19:09.357Z,41.00
2019-04-20T09:21:53.058Z,41.20
2019-04-20T09:24:47.383Z,41.00
2019-04-20T09:27:18.385Z,41.60
2019-04-20T09:30:01.988Z,40.10
2019-04-20T09:32:48.889Z,41.00
2019-04-20T09:35:36.094Z,41.70
2019-04-20T09:38:18.055Z,41.30
2019-04-20T09:40:55.503Z,39.30
2019-04-20T09:43:32.318Z,40.70
2019-04-20T09:46:10.266Z,39.60
2019-04-20T09:48:54.735Z,39.60
2019-04-20T09:51:45.774Z,39.80
2019-04-20T09:54:27.032Z,40.10
2019-04-20T09:57:09.106Z,37.70
2019-04-20T09:59:52.051Z,37.40
2019-04-20T10:02:16.823Z,35.80
2019-04-20T10:04:47.341Z,36.90
2019-04-20T10:07:28.692Z,37.30
2019-04-20T10:10:19.056Z,37.10
2019-04-20T10:12:46.438Z,36.30
2019-04-20T10:15:27.613Z,36.30
2019-04-20T10:18:03.725Z,37.70
2019-04-20T10:20:43.449Z,38.80
2019-04-20T10:23:20.787Z,36.70
2019-04-20T10:25:58.703Z,37.90
2019-04-20T10:28:37.369Z,39.30
2019-04-20T10:31:16.762Z,37.70
2019-04-20T10:33:55.742Z,38.10
2019-04-20T10:36:41.722Z,38.60
2019-04-20T10:39:22.494Z,38.40
2019-04-20T10:42:03.778Z,39.80
2019-04-20T10:44:39.017Z,38.60
2019-04-20T10:47:21.066Z,37.90
2019-04-20T10:50:00.857Z,39.20
2019-04-20T10:52:38.199Z,39.50
2019-04-20T10:55:27.383Z,39.80
2019-04-20T10:58:04.623Z,38.30
2019-04-20T11:00:44.011Z,38.80
2019-04-20T11:03:22.795Z,39.60
2019-04-20T11:06:00.697Z,39.20
2019-04-20T11:08:38.392Z,41.30
2019-04-20T11:11:22.845Z,39.10
2019-04-20T11:13:55.337Z,38.70
2019-04-20T11:16:32.843Z,41.50
2019-04-20T11:19:11.503Z,39.90
2019-04-20T11:21:50.177Z,39.30
2019-04-20T11:24:28.091Z,38.80
2019-04-20T11:27:06.100Z,37.00
2019-04-20T11:29:44.400Z,37.80
2019-04-20T11:32:24.194Z,38.20
2019-04-20T11:35:11.417Z,37.30
2019-04-20T11:37:42.863Z,37.10
2019-04-20T11:40:21.123Z,36.50
2019-04-20T11:42:59.541Z,37.70
2019-04-20T11:45:38.520Z,37.30
2019-04-20T11:48:16.488Z,37.10
2019-04-20T11:50:53.834Z,37.70
2019-04-20T11:53:32.263Z,36.90
2019-04-20T11:56:16.909Z,38.10
2019-04-20T11:58:50.851Z,37.10
2019-04-20T12:01:47.587Z,38.20
2019-04-20T12:04:33.336Z,37.50
2019-04-20T12:06:59.048Z,37.10
2019-04-20T12:09:37.717Z,37.20
2019-04-20T12:12:28.977Z,37.00
2019-04-20T12:14:55.258Z,38.10
2019-04-20T12:17:33.784Z,36.50
2019-04-20T12:20:11.120Z,36.50
2019-04-20T12:22:50.354Z,35.80
2019-04-20T12:25:28.213Z,36.40
2019-04-20T12:28:07.519Z,38.50
2019-04-20T12:30:45.954Z,39.10
2019-04-20T12:33:24.369Z,37.20
2019-04-20T12:36:02.519Z,38.00
2019-04-20T12:38:41.206Z,37.50
2019-04-20T12:41:31.086Z,38.60
2019-04-20T12:43:57.741Z,37.80
2019-04-20T12:46:36.004Z,33.40
2019-04-20T12:49:13.951Z,36.90
2019-04-20T12:51:57.557Z,36.40
2019-04-20T12:54:30.274Z,35.10
2019-04-20T12:57:08.826Z,34.60
2019-04-20T12:59:49.069Z,33.30
2019-04-20T13:02:27.288Z,33.40
2019-04-20T13:05:07.231Z,31.60
2019-04-20T13:07:48.225Z,34.90
2019-04-20T13:10:23.591Z,34.60
2019-04-20T13:13:02.638Z,35.00
2019-04-20T13:16:00.912Z,35.40
2019-04-20T13:18:41.142Z,36.60
2019-04-20T13:21:20.943Z,35.60
2019-04-20T13:23:58.682Z,34.80
2019-04-20T13:26:37.261Z,35.50
2019-04-20T13:29:15.016Z,33.30
2019-04-20T13:31:53.748Z,35.90
2019-04-20T13:34:31.998Z,34.90
2019-04-20T13:37:10.579Z,32.70
2019-04-20T13:39:49.030Z,35.10
2019-04-20T13:42:29.632Z,34.30
2019-04-20T13:45:08.663Z,35.10
2019-04-20T13:47:48.684Z,34.60
2019-04-20T13:50:34.010Z,33.30
2019-04-20T13:53:11.614Z,34.00
2019-04-20T13:55:49.843Z,34.40
2019-04-20T13:58:45.702Z,34.90
2019-04-20T14:01:34.757Z,35.00
2019-04-20T14:04:14.805Z,36.10
2019-04-20T14:06:53.355Z,35.60
2019-04-20T14:09:31.282Z,33.80
2019-04-20T14:12:20.064Z,33.60
2019-04-20T14:14:48.841Z,33.40
2019-04-20T14:17:26.928Z,35.00
2019-04-20T14:20:11.854Z,33.90
2019-04-20T14:22:45.191Z,34.20
2019-04-20T14:25:22.836Z,33.20
2019-04-20T14:28:00.862Z,34.20
2019-04-20T14:30:38.148Z,31.10
2019-04-20T14:33:17.184Z,34.00
2019-04-20T14:35:54.793Z,34.60
2019-04-20T14:38:33.919Z,34.00
2019-04-20T14:41:12.593Z,33.70
2019-04-20T14:43:51.136Z,34.10
2019-04-20T14:46:29.530Z,35.00
2019-04-20T14:49:07.688Z,33.90
2019-04-20T14:51:57.546Z,33.50
2019-04-20T14:54:35.443Z,32.90
2019-04-20T14:57:19.329Z,35.10
2019-04-20T15:00:23.621Z,35.00
2019-04-20T15:03:03.839Z,34.50
2019-04-20T15:05:41.440Z,35.40
2019-04-20T15:08:20.645Z,33.80
2019-04-20T15:11:01.007Z,33.60
2019-04-20T15:13:38.728Z,33.10
2019-04-20T15:16:16.934Z,33.10
2019-04-20T15:18:59.877Z,32.70
2019-04-20T15:21:49.469Z,33.40
2019-04-20T15:24:29.373Z,32.20
2019-04-20T15:27:10.697Z,30.80
2019-04-20T15:29:48.597Z,31.60
2019-04-20T15:32:27.021Z,28.60
2019-04-20T15:35:07.105Z,29.00
2019-04-20T15:37:45.321Z,29.20
2019-04-20T15:40:23.505Z,29.10
2019-04-20T15:43:08.327Z,29.10
2019-04-20T15:45:41.134Z,28.60
2019-04-20T15:48:19.761Z,27.60
2019-04-20T15:50:58.170Z,28.10
2019-04-20T15:53:37.604Z,28.40
2019-04-20T15:56:16.549Z,28.30
2019-04-20T15:58:54.554Z,28.90
2019-04-20T16:01:36.725Z,28.60
2019-04-20T16:04:36.117Z,28.70
2019-04-20T16:07:12.973Z,29.00
2019-04-20T16:09:51.617Z,28.90
2019-04-20T16:12:30.987Z,29.10
2019-04-20T16:15:09.487Z,29.80
2019-04-20T16:17:50.861Z,28.90
2019-04-20T16:20:28.521Z,29.10
2019-04-20T16:23:04.797Z,29.40
2019-04-20T16:25:55.598Z,30.00
2019-04-20T16:28:32.916Z,31.20
2019-04-20T16:31:13.540Z,32.10
2019-04-20T16:33:50.582Z,32.90
2019-04-20T16:36:30.259Z,32.80
2019-04-20T16:39:11.115Z,32.90
2019-04-20T16:41:48.705Z,33.80
2019-04-20T16:44:27.217Z,33.10
2019-04-20T16:47:14.236Z,33.50
2019-04-20T16:49:50.938Z,34.00
2019-04-20T16:52:28.784Z,34.60
2019-04-20T16:55:06.437Z,34.60
2019-04-20T16:57:47.956Z,35.00
2019-04-20T17:00:23.268Z,35.00
2019-04-20T17:03:00.881Z,34.60
2019-04-20T17:05:49.404Z,34.80
2019-04-20T17:08:27.051Z,35.10
2019-04-20T17:11:05.492Z,35.50
2019-04-20T17:13:49.424Z,35.90
2019-04-20T17:16:21.912Z,37.40
2019-04-20T17:18:59.648Z,36.80
2019-04-20T17:21:37.365Z,37.30
2019-04-20T17:24:15.617Z,37.60
2019-04-20T17:26:55.004Z,38.40
2019-04-20T17:29:36.713Z,38.70
2019-04-20T17:32:16.223Z,40.50
2019-04-20T17:35:09.206Z,40.40
2019-04-20T17:37:39.275Z,40.50
2019-04-20T17:40:35.746Z,40.40
2019-04-20T17:43:02.652Z,40.50
2019-04-20T17:45:41.976Z,41.00
2019-04-20T17:48:23.365Z,41.40
2019-04-20T17:51:13.942Z,41.90
2019-04-20T17:53:37.688Z,42.20
2019-04-20T17:56:10.381Z,42.40
2019-04-20T17:58:48.009Z,42.70
2019-04-20T18:01:48.917Z,43.40
2019-04-20T18:04:48.784Z,44.20
2019-04-20T18:07:18.322Z,44.90
2019-04-20T18:09:59.710Z,44.70
2019-04-20T18:12:26.840Z,45.00
2019-04-20T18:15:16.847Z,45.40
2019-04-20T18:18:12.340Z,46.00
2019-04-20T18:20:42.787Z,46.50
2019-04-20T18:23:27.447Z,46.40
2019-04-20T18:26:22.712Z,46.60
2019-04-20T18:29:03.599Z,46.90
2019-04-20T18:31:26.679Z,47.30
2019-04-20T18:34:14.015Z,47.30
2019-04-20T18:36:47.781Z,47.60
2019-04-20T18:39:38.399Z,48.10
2019-04-20T18:42:13.109Z,48.70
2019-04-20T18:45:07.423Z,49.30
2019-04-20T18:47:45.677Z,49.00
2019-04-20T18:50:17.336Z,49.40
2019-04-20T18:52:49.662Z,49.80
2019-04-20T18:55:33.287Z,49.60
2019-04-20T18:58:07.020Z,50.30
2019-04-20T19:00:50.157Z,50.40
2019-04-20T19:03:32.299Z,50.70
2019-04-20T19:06:05.530Z,51.60
2019-04-20T19:08:49.421Z,51.30
2019-04-20T19:11:24.126Z,51.50
2019-04-20T19:14:14.285Z,51.80
2019-04-20T19:16:55.392Z,51.90
2019-04-20T19:19:36.739Z,52.50
2019-04-20T19:22:06.121Z,52.80
2019-04-20T19:24:44.994Z,53.50
2019-04-20T19:27:32.060Z,53.50
2019-04-20T19:30:16.863Z,53.60
2019-04-20T19:33:00.820Z,54.40
2019-04-20T19:35:33.967Z,54.70
2019-04-20T19:38:10.333Z,55.90
2019-04-20T19:40:51.268Z,55.70
2019-04-20T19:43:30.725Z,57.10
2019-04-20T19:46:39.681Z,57.60
2019-04-20T19:48:51.877Z,58.00
2019-04-20T19:51:40.866Z,59.70
2019-04-20T19:54:22.735Z,59.60
2019-04-20T19:56:48.597Z,60.50
2019-04-20T19:59:26.024Z,62.00
2019-04-20T20:01:55.861Z,62.30
2019-04-20T20:04:48.628Z,63.40
2019-04-20T20:07:28.699Z,65.30
2019-04-20T20:10:02.304Z,68.10
2019-04-20T20:12:39.855Z,66.00
2019-04-20T20:15:24.278Z,65.60
2019-04-20T20:18:15.307Z,64.90
2019-04-20T20:20:55.440Z,67.50
2019-04-20T20:23:16.467Z,69.80
2019-04-20T20:25:57.051Z,71.80
2019-04-20T20:28:43.619Z,71.20
2019-04-20T20:31:23.332Z,72.80
2019-04-20T20:34:03.356Z,72.90
2019-04-20T20:36:43.733Z,75.40
2019-04-20T20:39:18.168Z,76.40
2019-04-20T20:42:01.668Z,77.40
2019-04-20T20:44:42.830Z,78.70
2019-04-20T20:47:31.691Z,79.50
2019-04-20T20:50:12.999Z,81.50
2019-04-20T20:52:44.033Z,84.40
2019-04-20T20:55:18.216Z,83.10
2019-04-20T20:57:56.334Z,83.90
2019-04-20T21:00:37.208Z,83.80
2019-04-20T21:03:08.770Z,84.10
2019-04-20T21:05:42.879Z,83.30
2019-04-20T21:08:21.636Z,83.30
2019-04-20T21:11:00.148Z,84.80
2019-04-20T21:13:40.208Z,85.00
2019-04-20T21:16:23.229Z,85.10
2019-04-20T21:19:17.239Z,85.20
2019-04-20T21:21:50.463Z,85.50
2019-04-20T21:24:39.799Z,84.80
2019-04-20T21:27:21.614Z,86.30
2019-04-20T21:30:02.135Z,88.50
2019-04-20T21:32:45.735Z,87.00
2019-04-20T21:35:19.838Z,87.80
2019-04-20T21:38:04.449Z,88.40
2019-04-20T21:40:42.675Z,88.60
2019-04-20T21:43:16.285Z,89.40
2019-04-20T21:45:59.438Z,90.40
2019-04-20T21:48:49.166Z,90.70
2019-04-20T21:51:25.773Z,90.90
2019-04-20T21:53:51.660Z,91.70
2019-04-20T21:56:30.090Z,92.10
2019-04-20T21:59:16.422Z,91.50
2019-04-20T22:01:55.013Z,93.20
2019-04-20T22:04:25.536Z,92.60
2019-04-20T22:07:02.853Z,92.60
2019-04-20T22:09:45.587Z,92.60
2019-04-20T22:12:20.121Z,92.90
2019-04-20T22:15:05.468Z,92.30
2019-04-20T22:17:39.818Z,92.50
2019-04-20T22:20:32.192Z,93.30
2019-04-20T22:23:13.019Z,94.00
2019-04-20T22:25:56.517Z,94.30
2019-04-20T22:28:18.161Z,95.20
2019-04-20T22:30:55.812Z,95.60
2019-04-20T22:33:41.217Z,94.90
2019-04-20T22:36:18.341Z,94.70
2019-04-20T22:39:09.605Z,95.10
2019-04-20T22:41:53.700Z,95.50
2019-04-20T22:44:32.108Z,95.60
2019-04-20T22:47:14.999Z,95.50
2019-04-20T22:50:11.872Z,96.00
2019-04-20T22:52:42.905Z,95.20
2019-04-20T22:55:48.815Z,96.20
2019-04-20T22:58:00.458Z,96.80
2019-04-20T23:00:36.535Z,97.70
2019-04-20T23:03:07.079Z,97.70
2019-04-20T23:05:44.899Z,97.40
2019-04-20T23:08:22.416Z,97.30
2019-04-20T23:11:02.587Z,97.10
2019-04-20T23:13:41.902Z,97.50
2019-04-20T23:16:17.663Z,97.50
2019-04-20T23:18:56.128Z,97.40
2019-04-20T23:21:34.070Z,97.50
2019-04-20T23:24:14.575Z,97.10
2019-04-20T23:26:53.059Z,97.10
2019-04-20T23:29:36.058Z,96.80
2019-04-20T23:32:12.093Z,96.90
2019-04-20T23:34:56.072Z,96.90
2019-04-20T23:37:31.547Z,96.80
2019-04-20T23:40:10.069Z,96.60
2019-04-20T23:42:51.614Z,96.80
2019-04-20T23:45:38.786Z,97.00
2019-04-20T23:48:28.334Z,96.60
2019-04-20T23:51:17.697Z,96.50
2019-04-20T23:53:53.899Z,96.80
2019-04-20T23:56:22.034Z,96.30
2019-04-20T23:58:59.785Z,96.00
